Weather reports worldwide

Advertisment
Mannheim City Airport, Germany (10730): temperature & dewpoint: 12.01.2020 14:00:00 - 18.01.2020 14:00:00 (CET)Mannheim City Airport, Germany (10730): wind speed: 12.01.2020 14:00:00 - 18.01.2020 14:00:00 (CET)Mannheim City Airport, Germany (10730): wind direction: 12.01.2020 14:00:00 - 18.01.2020 14:00:00 (CET)Mannheim City Airport, Germany (10730): visibility: 12.01.2020 14:00:00 - 18.01.2020 14:00:00 (CET)
Date & Time tt [°C] td [°C] ff [km/h] ff [kn] dd vv [km]
18.01.2020 14:00:00 7,0 1,0 13 7 SW 10
18.01.2020 13:00:00 7,0 1,0 15 8 SW 10
18.01.2020 12:00:00 7,0 2,0 15 8 SW 10
18.01.2020 11:00:00 6,0 2,0 11 6 SW 10
18.01.2020 10:00:00 5,0 2,0 4 2 - 10
18.01.2020 09:00:00 5,0 2,0 9 5 SSW 10
18.01.2020 08:00:00 5,0 2,0 11 6 SSW 10
18.01.2020 07:00:00 - - - - - -
18.01.2020 06:00:00 - - - - - -
18.01.2020 05:00:00 - - - - - -
18.01.2020 04:00:00 - - - - - -
18.01.2020 03:00:00 - - - - - -
18.01.2020 02:00:00 - - - - - -
18.01.2020 01:00:00 - - - - - -
18.01.2020 00:00:00 - - - - - -
17.01.2020 23:00:00 - - - - - -
17.01.2020 22:00:00 - - - - - -
17.01.2020 21:00:00 - - - - - -
17.01.2020 20:00:00 9,0 6,0 15 8 S 10
17.01.2020 19:00:00 9,0 6,0 13 7 SSW 10
17.01.2020 18:00:00 9,0 6,0 15 8 SSW 10
17.01.2020 17:00:00 9,0 5,0 13 7 SSW 10
17.01.2020 16:00:00 9,0 4,0 9 5 S 10
17.01.2020 15:00:00 9,0 3,0 8 4 SSE 10
17.01.2020 14:00:00 9,0 3,0 11 6 S 10
17.01.2020 13:00:00 9,0 3,0 13 7 S 10
17.01.2020 12:00:00 8,0 3,0 11 6 S 10
17.01.2020 11:00:00 8,0 3,0 11 6 SSE 10
17.01.2020 10:00:00 6,0 2,0 9 5 S 10
17.01.2020 09:00:00 4,0 2,0 8 4 S 10
17.01.2020 08:00:00 5,0 2,0 5 3 SE 10
17.01.2020 07:00:00 5,0 2,0 9 5 SE 10
17.01.2020 06:00:00 5,0 3,0 8 4 SSE 10
17.01.2020 05:00:00 - - - - - -
17.01.2020 04:00:00 - - - - - -
17.01.2020 03:00:00 - - - - - -
17.01.2020 02:00:00 - - - - - -
17.01.2020 01:00:00 - - - - - -
17.01.2020 00:00:00 - - - - - -
16.01.2020 23:00:00 - - - - - -
16.01.2020 22:00:00 - - - - - -
16.01.2020 21:00:00 - - - - - -
16.01.2020 20:00:00 6,0 4,0 4 2 - 10
16.01.2020 19:00:00 7,0 4,0 2 1 - 10
16.01.2020 18:00:00 9,0 5,0 0 0 N 10
16.01.2020 17:00:00 13,0 5,0 8 4 SE 10
16.01.2020 16:00:00 14,0 6,0 9 5 SE 10
16.01.2020 15:00:00 15,0 5,0 11 6 S 10
16.01.2020 14:00:00 14,0 5,0 9 5 S 10
16.01.2020 13:00:00 14,0 6,0 9 5 S 10
16.01.2020 12:00:00 13,0 6,0 8 4 ESE 10
16.01.2020 11:00:00 12,0 6,0 5 3 - 10
16.01.2020 10:00:00 10,0 5,0 5 3 - 10
16.01.2020 09:00:00 9,0 5,0 8 4 SE 10
16.01.2020 08:00:00 10,0 5,0 4 2 - 10
16.01.2020 07:00:00 10,0 6,0 5 3 - 10
16.01.2020 06:00:00 11,0 6,0 8 4 SSW 10
16.01.2020 05:00:00 - - - - - -
16.01.2020 04:00:00 - - - - - -
16.01.2020 03:00:00 - - - - - -
16.01.2020 02:00:00 - - - - - -
16.01.2020 01:00:00 - - - - - -
16.01.2020 00:00:00 - - - - - -
15.01.2020 23:00:00 - - - - - -
15.01.2020 22:00:00 - - - - - -
15.01.2020 21:00:00 12,0 4,0 13 7 S 10
15.01.2020 20:00:00 12,0 4,0 15 8 S 10
15.01.2020 19:00:00 11,0 4,0 5 3 - 10
15.01.2020 18:00:00 12,0 3,0 9 5 S 10
15.01.2020 17:00:00 13,0 3,0 8 4 S 10
15.01.2020 16:00:00 14,0 3,0 15 8 S 10
15.01.2020 15:00:00 14,0 3,0 15 8 S 10
15.01.2020 14:00:00 13,0 3,0 21 11 S 10
15.01.2020 13:00:00 12,0 3,0 16 9 S 10
15.01.2020 12:00:00 11,0 2,0 11 6 S 10
15.01.2020 11:00:00 10,0 2,0 13 7 S 10
15.01.2020 10:00:00 8,0 2,0 9 5 SSE 10
15.01.2020 09:00:00 7,0 2,0 11 6 SSE 10
15.01.2020 08:00:00 8,0 2,0 11 6 SSE 10
15.01.2020 07:00:00 8,0 1,0 11 6 S 10
15.01.2020 06:00:00 8,0 2,0 9 5 S 10
15.01.2020 05:00:00 - - - - - -
15.01.2020 04:00:00 - - - - - -
15.01.2020 03:00:00 - - - - - -
15.01.2020 02:00:00 - - - - - -
15.01.2020 01:00:00 - - - - - -
15.01.2020 00:00:00 - - - - - -
14.01.2020 23:00:00 - - - - - -
14.01.2020 22:00:00 - - - - - -
14.01.2020 21:00:00 10,0 3,0 11 6 SE 10
14.01.2020 20:00:00 10,0 2,0 11 6 SSE 10
14.01.2020 19:00:00 10,0 2,0 5 3 SE 10
14.01.2020 18:00:00 10,0 1,0 8 4 S 10
14.01.2020 17:00:00 11,0 1,0 9 5 S 10
14.01.2020 16:00:00 11,0 1,0 11 6 S 10
14.01.2020 15:00:00 11,0 1,0 13 7 S 10
14.01.2020 14:00:00 10,0 1,0 16 9 S 10
14.01.2020 13:00:00 9,0 1,0 13 7 S 10
14.01.2020 12:00:00 8,0 1,0 11 6 S 10
14.01.2020 11:00:00 7,0 1,0 15 8 S 10
14.01.2020 10:00:00 7,0 1,0 9 5 S 10
14.01.2020 09:00:00 6,0 1,0 11 6 SSE 10
14.01.2020 08:00:00 5,0 1,0 11 6 SE 10
14.01.2020 07:00:00 6,0 2,0 4 2 - 10
14.01.2020 06:00:00 6,0 3,0 13 7 S 10
14.01.2020 05:00:00 - - - - - -
14.01.2020 04:00:00 - - - - - -
14.01.2020 03:00:00 - - - - - -
14.01.2020 02:00:00 - - - - - -
14.01.2020 01:00:00 - - - - - -
14.01.2020 00:00:00 - - - - - -
13.01.2020 23:00:00 - - - - - -
13.01.2020 22:00:00 - - - - - -
13.01.2020 21:00:00 - - - - - -
13.01.2020 20:00:00 6,0 4,0 8 4 SSE 10
13.01.2020 19:00:00 6,0 4,0 8 4 S 10
13.01.2020 18:00:00 6,0 4,0 5 3 - 10
13.01.2020 17:00:00 7,0 4,0 11 6 S 10
13.01.2020 16:00:00 8,0 4,0 9 5 SSE 10
13.01.2020 15:00:00 8,0 5,0 8 4 SSE 10
13.01.2020 14:00:00 7,0 4,0 11 6 S 10
13.01.2020 13:00:00 7,0 4,0 11 6 S 10
13.01.2020 12:00:00 7,0 3,0 15 8 S 10
13.01.2020 11:00:00 6,0 3,0 13 7 S 10
13.01.2020 10:00:00 6,0 3,0 11 6 SSE 10
13.01.2020 09:00:00 5,0 3,0 8 4 SSE 10
13.01.2020 08:00:00 5,0 3,0 8 4 SSE 10
13.01.2020 07:00:00 5,0 3,0 8 4 SSE 10
13.01.2020 06:00:00 5,0 2,0 8 4 SSE 10
13.01.2020 05:00:00 - - - - - -
13.01.2020 04:00:00 - - - - - -
13.01.2020 03:00:00 - - - - - -
13.01.2020 02:00:00 - - - - - -
13.01.2020 01:00:00 - - - - - -
13.01.2020 00:00:00 - - - - - -
12.01.2020 23:00:00 - - - - - -
12.01.2020 22:00:00 - - - - - -
12.01.2020 21:00:00 - - - - - -
12.01.2020 20:00:00 - - - - - -
12.01.2020 19:00:00 - - - - - -
12.01.2020 18:00:00 5,0 1,0 13 7 S 10
12.01.2020 17:00:00 5,0 1,0 15 8 S 10
12.01.2020 16:00:00 5,0 1,0 13 7 S 10
12.01.2020 15:00:00 5,0 1,0 13 7 S 10
12.01.2020 14:00:00 5,0 1,0 16 9 S 10

tt = temperature
td = dewpoint
ff = wind speed
dd = wind direction
vv = visibility

Next stations